Friday, September 21, 2018, 5:58 PM EDT
Back to Local

KLOM, Philadelphia, Wings Field Airport

Location: Blue Bell, PA, United States Lat: 40.138
Local Time: 5:58 PM EDT (21:58 GMT) Lon: -75.265
Time Zone: US/Eastern Elev: 301 ft

Show me the last for .
Show Decoded

2018-09-21 17:35 METAR KLOM 212135Z AUTO 19006G14KT 10SM SCT026 BKN036 22/18 A3007 RMK AO1 =
2018-09-21 17:15 METAR KLOM 212115Z AUTO 20008G14KT 10SM SCT029 OVC036 22/18 A3008 RMK AO1 =
2018-09-21 16:55 METAR KLOM 212055Z AUTO 19006KT 10SM BKN025 OVC031 22/18 A3009 RMK AO1 =
2018-09-21 16:35 METAR KLOM 212035Z AUTO 21008KT 10SM OVC025 22/18 A3010 RMK AO1 =
2018-09-21 16:15 METAR KLOM 212015Z AUTO 20010G14KT 10SM OVC025 22/18 A3011 RMK AO1 =
2018-09-21 15:50 METAR KLOM 211950Z AUTO 19008KT 160V220 10SM OVC027 22/18 A3011 RMK AO1 =
2018-09-21 15:35 METAR KLOM 211935Z AUTO 20005KT 10SM OVC027 22/18 A3012 RMK AO1 =
2018-09-21 15:15 METAR KLOM 211915Z AUTO 20004KT 10SM OVC029 22/18 A3012 RMK AO1 =
2018-09-21 14:55 METAR KLOM 211855Z AUTO 19005KT 10SM BKN029 OVC036 22/18 A3013 RMK AO1 =
2018-09-21 14:35 METAR KLOM 211835Z AUTO 19007KT 10SM SCT031 OVC038 22/17 A3014 RMK AO1 =
2018-09-21 14:15 METAR KLOM 211815Z AUTO 19007KT 10SM SCT029 OVC038 22/17 A3015 RMK AO1 =
2018-09-21 13:55 METAR KLOM 211755Z AUTO 19008KT 10SM SCT029 BKN042 OVC048 22/17 A3017 RMK AO1 =
2018-09-21 13:35 METAR KLOM 211735Z AUTO 18006KT 10SM SCT025 SCT029 OVC046 22/18 A3017 RMK AO1 =
2018-09-21 13:15 METAR KLOM 211715Z AUTO 18008KT 10SM BKN029 BKN034 OVC046 22/18 A3018 RMK AO1 =
2018-09-21 12:55 METAR KLOM 211655Z AUTO 18006KT 10SM SCT025 OVC031 22/18 A3019 RMK AO1 =
2018-09-21 12:35 METAR KLOM 211635Z AUTO 18006G14KT 10SM SCT021 BKN028 OVC040 22/18 A3020 RMK AO1
                 =
2018-09-21 12:15 METAR KLOM 211615Z AUTO 17008KT 10SM SCT023 BKN028 OVC040 22/18 A3020 RMK AO1 =
2018-09-21 11:55 METAR KLOM 211555Z AUTO 19006KT 10SM SCT021 BKN026 OVC038 21/17 A3021 RMK AO1 =
2018-09-21 11:35 METAR KLOM 211535Z AUTO 20007KT 10SM SCT019 SCT027 OVC040 21/17 A3022 RMK AO1 =
2018-09-21 11:15 METAR KLOM 211515Z AUTO 18007KT 10SM SCT018 SCT031 OVC040 21/18 A3023 RMK AO1 =
2018-09-21 10:55 METAR KLOM 211455Z AUTO 16006KT 10SM SCT018 OVC038 20/17 A3023 RMK AO1 =
2018-09-21 10:35 METAR KLOM 211435Z AUTO 16006KT 10SM SCT016 SCT031 OVC038 20/17 A3024 RMK AO1 =
2018-09-21 10:15 METAR KLOM 211415Z AUTO 19005KT 10SM SCT016 SCT031 OVC038 20/17 A3025 RMK AO1 =
2018-09-21 09:55 METAR KLOM 211355Z AUTO 16005KT 10SM SCT016 OVC038 20/17 A3025 RMK AO1 =
2018-09-21 09:35 METAR KLOM 211335Z AUTO 17004KT 10SM SCT018 SCT022 OVC038 20/17 A3025 RMK AO1 =
2018-09-21 09:15 METAR KLOM 211315Z AUTO 18003KT 10SM OVC018 19/17 A3026 RMK AO1 =
2018-09-21 08:55 METAR KLOM 211255Z AUTO 00000KT 10SM OVC018 18/17 A3026 RMK AO1 =
2018-09-21 08:35 METAR KLOM 211235Z AUTO 00000KT 10SM BKN018 BKN023 OVC038 18/17 A3026 RMK AO1 =
2018-09-21 08:15 METAR KLOM 211215Z AUTO 00000KT 10SM BKN018 OVC025 18/17 A3027 RMK AO1 =
2018-09-21 07:55 METAR KLOM 211155Z AUTO 00000KT 10SM SCT018 OVC025 18/17 A3027 RMK AO1 =
2018-09-21 07:35 METAR KLOM 211135Z AUTO 00000KT 10SM OVC025 18/17 A3027 RMK AO1 =
2018-09-21 07:15 METAR KLOM 211115Z AUTO 00000KT 10SM BKN023 BKN029 OVC035 18/16 A3027 RMK AO1 =
2018-09-21 06:55 METAR KLOM 211055Z AUTO 00000KT 10SM BKN028 OVC035 17/17 A3027 RMK AO1 =
2018-09-21 06:35 METAR KLOM 211035Z AUTO 00000KT 10SM BKN028 OVC035 18/17 A3027 RMK AO1 =
2018-09-21 06:15 METAR KLOM 211015Z AUTO 00000KT 10SM SCT024 OVC035 17/17 A3026 RMK AO1 =
2018-09-21 05:55 METAR KLOM 210955Z AUTO 00000KT 10SM SCT024 OVC035 18/16 A3026 RMK AO1 =
2018-09-21 05:35 METAR KLOM 210935Z AUTO 00000KT 10SM OVC035 18/16 A3026 RMK AO1 =
2018-09-21 05:15 METAR KLOM 210915Z AUTO 13003KT 10SM OVC035 17/16 A3025 RMK AO1 =
2018-09-21 04:55 METAR KLOM 210855Z AUTO 00000KT 10SM BKN035 OVC047 17/16 A3025 RMK AO1 =
2018-09-21 04:35 METAR KLOM 210835Z AUTO 14003KT 10SM OVC035 17/16 A3024 RMK AO1 =
2018-09-21 04:15 METAR KLOM 210815Z AUTO 00000KT 10SM OVC035 17/16 A3024 RMK AO1 =
2018-09-21 03:55 METAR KLOM 210755Z AUTO 00000KT 10SM OVC035 17/16 A3025 RMK AO1 =
2018-09-21 03:35 METAR KLOM 210735Z AUTO 00000KT 10SM BKN035 OVC060 17/16 A3025 RMK AO1 =
2018-09-21 03:15 METAR KLOM 210715Z AUTO 00000KT 10SM SCT035 SCT043 OVC060 17/16 A3025 RMK AO1 =
2018-09-21 02:55 METAR KLOM 210655Z AUTO 00000KT 10SM OVC035 17/16 A3025 RMK AO1 =
2018-09-21 02:35 METAR KLOM 210635Z AUTO 00000KT 10SM OVC033 17/16 A3025 RMK AO1 =
2018-09-21 02:15 METAR KLOM 210615Z AUTO 15003KT 10SM OVC033 18/16 A3026 RMK AO1 =
2018-09-21 01:55 METAR KLOM 210555Z AUTO 00000KT 10SM OVC033 17/16 A3026 RMK AO1 =
2018-09-21 01:35 METAR KLOM 210535Z AUTO 00000KT 10SM OVC033 17/16 A3026 RMK AO1 =
2018-09-21 01:15 METAR KLOM 210515Z AUTO 00000KT 10SM OVC033 17/16 A3026 RMK AO1 =
2018-09-21 00:55 METAR KLOM 210455Z AUTO 00000KT 10SM BKN031 OVC038 17/16 A3027 RMK AO1 =
2018-09-21 00:35 METAR KLOM 210435Z AUTO 14003KT 10SM OVC037 18/15 A3027 RMK AO1 =
2018-09-21 00:15 METAR KLOM 210415Z AUTO 14004KT 10SM OVC035 18/15 A3027 RMK AO1 =
2018-09-20 23:55 METAR KLOM 210355Z AUTO 14004KT 10SM OVC037 18/15 A3026 RMK AO1 =
2018-09-20 23:35 METAR KLOM 210335Z AUTO 14004KT 10SM OVC035 18/15 A3027 RMK AO1 =
2018-09-20 23:15 METAR KLOM 210315Z AUTO 00000KT 10SM BKN035 OVC050 18/15 A3027 RMK AO1 =
2018-09-20 22:50 METAR KLOM 210250Z AUTO 15004KT 10SM BKN035 BKN048 OVC050 18/15 A3027 RMK AO1 =
2018-09-20 22:35 METAR KLOM 210235Z AUTO 13003KT 10SM OVC037 18/15 A3027 RMK AO1 =
2018-09-20 22:15 METAR KLOM 210215Z AUTO 12003KT 10SM SCT028 OVC037 18/15 A3027 RMK AO1 =
2018-09-20 21:55 METAR KLOM 210155Z AUTO 13003KT 10SM SCT026 OVC040 18/16 A3026 RMK AO1 =
2018-09-20 21:35 METAR KLOM 210135Z AUTO 00000KT 10SM SCT026 OVC038 18/16 A3026 RMK AO1 =
2018-09-20 21:15 METAR KLOM 210115Z AUTO 14005KT 10SM SCT021 OVC036 18/16 A3025 RMK AO1 =
2018-09-20 20:55 METAR KLOM 210055Z AUTO 13005KT 10SM OVC021 18/16 A3025 RMK AO1 =
2018-09-20 20:35 METAR KLOM 210035Z AUTO 13007KT 10SM OVC023 19/16 A3025 RMK AO1 =
2018-09-20 20:15 METAR KLOM 210015Z AUTO 12006KT 10SM OVC023 20/16 A3025 RMK AO1 =
2018-09-20 19:55 METAR KLOM 202355Z AUTO 11005KT 10SM OVC025 20/17 A3023 RMK AO1 =
2018-09-20 19:35 METAR KLOM 202335Z AUTO 12003KT 10SM OVC025 20/17 A3023 RMK AO1 =
2018-09-20 19:15 METAR KLOM 202315Z AUTO 00000KT 10SM BKN027 OVC042 19/17 A3023 RMK AO1 =
2018-09-20 18:55 METAR KLOM 202255Z AUTO 00000KT 10SM SCT025 BKN042 19/17 A3023 RMK AO1 =
2018-09-20 18:35 METAR KLOM 202235Z AUTO 00000KT 10SM CLR 19/17 A3023 RMK AO1 =
2018-09-20 18:15 METAR KLOM 202215Z AUTO 00000KT 10SM SCT023 SCT049 20/17 A3023 RMK AO1 =

Support USWX by starting your Amazon purchase here.